sensor_id;sensor_type;location;lat;lon;timestamp;pressure;altitude;pressure_sealevel;temperature;humidity
26823;BME280;14852;51.910;8.878;2023-04-26T00:02:02;99881.09;;;6.61;50.03
26823;BME280;14852;51.910;8.878;2023-04-26T00:04:30;99890.72;;;6.57;50.15
26823;BME280;14852;51.910;8.878;2023-04-26T00:06:56;99888.22;;;6.54;49.94
26823;BME280;14852;51.910;8.878;2023-04-26T00:09:23;99887.44;;;6.52;50.27
26823;BME280;14852;51.910;8.878;2023-04-26T00:11:48;99887.53;;;6.49;50.43
26823;BME280;14852;51.910;8.878;2023-04-26T00:14:14;99890.16;;;6.47;50.30
26823;BME280;14852;51.910;8.878;2023-04-26T00:16:40;99901.44;;;6.45;50.52
26823;BME280;14852;51.910;8.878;2023-04-26T00:19:06;99894.56;;;6.45;50.33
26823;BME280;14852;51.910;8.878;2023-04-26T00:21:31;99892.97;;;6.41;50.55
26823;BME280;14852;51.910;8.878;2023-04-26T00:23:57;99887.84;;;6.40;50.35
26823;BME280;14852;51.910;8.878;2023-04-26T00:26:23;99895.59;;;6.40;50.74
26823;BME280;14852;51.910;8.878;2023-04-26T00:28:49;99888.72;;;6.39;50.63
26823;BME280;14852;51.910;8.878;2023-04-26T00:31:15;99893.09;;;6.37;50.60
26823;BME280;14852;51.910;8.878;2023-04-26T00:33:42;99895.72;;;6.35;50.77
26823;BME280;14852;51.910;8.878;2023-04-26T00:36:09;99894.16;;;6.31;50.57
26823;BME280;14852;51.910;8.878;2023-04-26T00:38:35;99890.69;;;6.32;50.79
26823;BME280;14852;51.910;8.878;2023-04-26T00:41:01;99892.47;;;6.30;50.85
26823;BME280;14852;51.910;8.878;2023-04-26T00:43:27;99883.97;;;6.27;50.91
26823;BME280;14852;51.910;8.878;2023-04-26T00:45:53;99890.91;;;6.25;51.08
26823;BME280;14852;51.910;8.878;2023-04-26T00:48:19;99890.16;;;6.23;50.95
26823;BME280;14852;51.910;8.878;2023-04-26T00:50:46;99894.47;;;6.22;51.09
26823;BME280;14852;51.910;8.878;2023-04-26T00:53:13;99896.19;;;6.22;51.13
26823;BME280;14852;51.910;8.878;2023-04-26T00:55:41;99887.63;;;6.21;51.22
26823;BME280;14852;51.910;8.878;2023-04-26T00:58:07;99886.81;;;6.19;50.92
26823;BME280;14852;51.910;8.878;2023-04-26T01:00:33;99891.19;;;6.17;51.46
26823;BME280;14852;51.910;8.878;2023-04-26T01:02:59;99892.06;;;6.16;51.06
26823;BME280;14852;51.910;8.878;2023-04-26T01:05:25;99888.66;;;6.15;51.09
26823;BME280;14852;51.910;8.878;2023-04-26T01:07:51;99893.84;;;6.14;51.29
26823;BME280;14852;51.910;8.878;2023-04-26T01:10:17;99891.31;;;6.12;51.24
26823;BME280;14852;51.910;8.878;2023-04-26T01:12:43;99888.81;;;6.11;51.40
26823;BME280;14852;51.910;8.878;2023-04-26T01:15:10;99896.56;;;6.11;51.57
26823;BME280;14852;51.910;8.878;2023-04-26T01:17:36;99893.16;;;6.09;51.54
26823;BME280;14852;51.910;8.878;2023-04-26T01:20:04;99891.53;;;6.06;51.66
26823;BME280;14852;51.910;8.878;2023-04-26T01:22:33;99889.00;;;6.05;51.49
26823;BME280;14852;51.910;8.878;2023-04-26T01:25:00;99889.03;;;6.03;51.60
26823;BME280;14852;51.910;8.878;2023-04-26T01:27:31;99887.38;;;6.01;51.63
26823;BME280;14852;51.910;8.878;2023-04-26T01:29:57;99896.84;;;6.00;51.71
26823;BME280;14852;51.910;8.878;2023-04-26T01:32:23;99884.94;;;5.98;51.92
26823;BME280;14852;51.910;8.878;2023-04-26T01:34:48;99891.81;;;5.97;51.74
26823;BME280;14852;51.910;8.878;2023-04-26T01:37:17;99892.72;;;5.96;51.72
26823;BME280;14852;51.910;8.878;2023-04-26T01:39:43;99891.88;;;5.96;51.71
26823;BME280;14852;51.910;8.878;2023-04-26T01:42:08;99891.06;;;5.94;51.57
26823;BME280;14852;51.910;8.878;2023-04-26T01:44:34;99879.91;;;5.93;51.69
26823;BME280;14852;51.910;8.878;2023-04-26T01:47:00;99880.78;;;5.92;51.98
26823;BME280;14852;51.910;8.878;2023-04-26T01:49:32;99879.94;;;5.92;52.08
26823;BME280;14852;51.910;8.878;2023-04-26T01:51:59;99885.16;;;5.90;51.87
26823;BME280;14852;51.910;8.878;2023-04-26T01:54:25;99888.56;;;5.91;52.06
26823;BME280;14852;51.910;8.878;2023-04-26T01:56:52;99889.47;;;5.90;51.94
26823;BME280;14852;51.910;8.878;2023-04-26T01:59:17;99881.78;;;5.88;51.89
26823;BME280;14852;51.910;8.878;2023-04-26T02:01:43;99884.38;;;5.88;51.90
26823;BME280;14852;51.910;8.878;2023-04-26T02:04:09;99888.66;;;5.88;52.14
26823;BME280;14852;51.910;8.878;2023-04-26T02:06:35;99886.06;;;5.88;52.20
26823;BME280;14852;51.910;8.878;2023-04-26T02:09:03;99892.13;;;5.87;52.22
26823;BME280;14852;51.910;8.878;2023-04-26T02:11:30;99893.84;;;5.86;52.02
26823;BME280;14852;51.910;8.878;2023-04-26T02:13:56;99887.84;;;5.86;52.03
26823;BME280;14852;51.910;8.878;2023-04-26T02:16:22;99889.63;;;5.83;52.06
26823;BME280;14852;51.910;8.878;2023-04-26T02:18:48;99890.47;;;5.84;52.26
26823;BME280;14852;51.910;8.878;2023-04-26T02:21:16;99889.69;;;5.82;52.21
26823;BME280;14852;51.910;8.878;2023-04-26T02:23:45;99892.25;;;5.82;52.11
26823;BME280;14852;51.910;8.878;2023-04-26T02:26:12;99891.41;;;5.81;52.55
26823;BME280;14852;51.910;8.878;2023-04-26T02:28:38;99894.91;;;5.79;52.54
26823;BME280;14852;51.910;8.878;2023-04-26T02:31:04;99903.53;;;5.78;52.55
26823;BME280;14852;51.910;8.878;2023-04-26T02:33:30;99898.38;;;5.78;52.40
26823;BME280;14852;51.910;8.878;2023-04-26T02:35:56;99893.34;;;5.75;52.77
26823;BME280;14852;51.910;8.878;2023-04-26T02:38:23;99897.66;;;5.74;52.61
26823;BME280;14852;51.910;8.878;2023-04-26T02:40:58;99897.69;;;5.73;52.52
26823;BME280;14852;51.910;8.878;2023-04-26T02:43:24;99897.78;;;5.70;52.77
26823;BME280;14852;51.910;8.878;2023-04-26T02:45:50;99897.78;;;5.70;52.86
26823;BME280;14852;51.910;8.878;2023-04-26T02:48:16;99901.25;;;5.69;52.61
26823;BME280;14852;51.910;8.878;2023-04-26T02:50:41;99899.59;;;5.66;52.67
26823;BME280;14852;51.910;8.878;2023-04-26T02:53:08;99896.19;;;5.66;52.74
26823;BME280;14852;51.910;8.878;2023-04-26T02:55:34;99890.25;;;5.64;52.63
26823;BME280;14852;51.910;8.878;2023-04-26T02:57:59;99892.03;;;5.62;52.80
26823;BME280;14852;51.910;8.878;2023-04-26T03:00:25;99898.94;;;5.60;52.71
26823;BME280;14852;51.910;8.878;2023-04-26T03:02:52;99891.25;;;5.58;52.99
26823;BME280;14852;51.910;8.878;2023-04-26T03:05:18;99897.31;;;5.57;52.86
26823;BME280;14852;51.910;8.878;2023-04-26T03:07:45;99892.19;;;5.56;52.84
26823;BME280;14852;51.910;8.878;2023-04-26T03:10:11;99897.47;;;5.53;52.85
26823;BME280;14852;51.910;8.878;2023-04-26T03:12:39;99906.13;;;5.50;53.29
26823;BME280;14852;51.910;8.878;2023-04-26T03:15:05;99893.31;;;5.47;53.00
26823;BME280;14852;51.910;8.878;2023-04-26T03:17:32;99892.50;;;5.45;53.04
26823;BME280;14852;51.910;8.878;2023-04-26T03:19:58;99899.44;;;5.43;53.10
26823;BME280;14852;51.910;8.878;2023-04-26T03:22:24;99899.50;;;5.41;53.08
26823;BME280;14852;51.910;8.878;2023-04-26T03:24:49;99896.97;;;5.40;53.32
26823;BME280;14852;51.910;8.878;2023-04-26T03:27:15;99896.16;;;5.38;53.28
26823;BME280;14852;51.910;8.878;2023-04-26T03:29:41;99888.47;;;5.36;53.20
26823;BME280;14852;51.910;8.878;2023-04-26T03:32:07;99893.66;;;5.35;53.44
26823;BME280;14852;51.910;8.878;2023-04-26T03:34:33;99901.44;;;5.33;53.40
26823;BME280;14852;51.910;8.878;2023-04-26T03:37:01;99899.78;;;5.31;53.61
26823;BME280;14852;51.910;8.878;2023-04-26T03:39:28;99903.28;;;5.30;53.56
26823;BME280;14852;51.910;8.878;2023-04-26T03:41:54;99899.91;;;5.28;53.38
26823;BME280;14852;51.910;8.878;2023-04-26T03:44:20;99890.47;;;5.27;53.43
26823;BME280;14852;51.910;8.878;2023-04-26T03:46:45;99890.53;;;5.25;53.63
26823;BME280;14852;51.910;8.878;2023-04-26T03:49:11;99890.56;;;5.24;53.68
26823;BME280;14852;51.910;8.878;2023-04-26T03:51:37;99887.13;;;5.23;53.47
26823;BME280;14852;51.910;8.878;2023-04-26T03:54:03;99890.59;;;5.22;53.66
26823;BME280;14852;51.910;8.878;2023-04-26T03:56:28;99885.47;;;5.21;53.69
26823;BME280;14852;51.910;8.878;2023-04-26T03:58:55;99878.63;;;5.20;53.78
26823;BME280;14852;51.910;8.878;2023-04-26T04:01:21;99873.56;;;5.18;53.68
26823;BME280;14852;51.910;8.878;2023-04-26T04:03:47;99876.13;;;5.18;53.72
26823;BME280;14852;51.910;8.878;2023-04-26T04:06:14;99878.72;;;5.18;53.69
26823;BME280;14852;51.910;8.878;2023-04-26T04:08:42;99883.88;;;5.18;53.68
26823;BME280;14852;51.910;8.878;2023-04-26T04:11:07;99882.97;;;5.19;53.64
26823;BME280;14852;51.910;8.878;2023-04-26T04:13:36;99888.91;;;5.21;53.67
26823;BME280;14852;51.910;8.878;2023-04-26T04:16:02;99882.88;;;5.22;53.41
26823;BME280;14852;51.910;8.878;2023-04-26T04:18:29;99878.56;;;5.23;53.68
26823;BME280;14852;51.910;8.878;2023-04-26T04:20:54;99878.47;;;5.26;53.78
26823;BME280;14852;51.910;8.878;2023-04-26T04:23:21;99884.41;;;5.29;53.50
26823;BME280;14852;51.910;8.878;2023-04-26T04:25:47;99881.66;;;5.34;53.48
26823;BME280;14852;51.910;8.878;2023-04-26T04:28:14;99885.00;;;5.37;53.62
26823;BME280;14852;51.910;8.878;2023-04-26T04:30:41;99893.44;;;5.42;53.57
26823;BME280;14852;51.910;8.878;2023-04-26T04:33:08;99888.16;;;5.47;53.34
26823;BME280;14852;51.910;8.878;2023-04-26T04:35:34;99888.88;;;5.52;53.36
26823;BME280;14852;51.910;8.878;2023-04-26T04:38:03;99892.94;;;5.59;53.55
26823;BME280;14852;51.910;8.878;2023-04-26T04:40:29;99893.59;;;5.66;53.32
26823;BME280;14852;51.910;8.878;2023-04-26T04:42:58;99894.28;;;5.72;53.06
26823;BME280;14852;51.910;8.878;2023-04-26T04:45:25;99906.91;;;5.80;52.94
26823;BME280;14852;51.910;8.878;2023-04-26T04:47:55;99899.78;;;5.90;53.14
26823;BME280;14852;51.910;8.878;2023-04-26T04:50:20;99911.41;;;6.03;52.82
26823;BME280;14852;51.910;8.878;2023-04-26T04:52:48;99912.56;;;6.21;52.79
26823;BME280;14852;51.910;8.878;2023-04-26T04:55:14;99906.03;;;6.86;51.97
26823;BME280;14852;51.910;8.878;2023-04-26T04:57:40;99905.88;;;8.06;49.47
26823;BME280;14852;51.910;8.878;2023-04-26T05:00:07;99901.56;;;9.28;46.68
26823;BME280;14852;51.910;8.878;2023-04-26T05:02:38;99900.47;;;10.26;45.05
26823;BME280;14852;51.910;8.878;2023-04-26T05:05:05;99900.53;;;10.94;43.86
26823;BME280;14852;51.910;8.878;2023-04-26T05:07:31;99895.88;;;11.65;42.59
26823;BME280;14852;51.910;8.878;2023-04-26T05:09:57;99893.72;;;12.34;41.55
26823;BME280;14852;51.910;8.878;2023-04-26T05:12:24;99893.19;;;12.87;40.72
26823;BME280;14852;51.910;8.878;2023-04-26T05:14:50;99893.13;;;13.46;39.82
26823;BME280;14852;51.910;8.878;2023-04-26T05:17:16;99899.94;;;14.16;38.66
26823;BME280;14852;51.910;8.878;2023-04-26T05:19:42;99889.13;;;14.87;37.93
26823;BME280;14852;51.910;8.878;2023-04-26T05:22:08;99883.25;;;15.21;37.56
26823;BME280;14852;51.910;8.878;2023-04-26T05:24:34;99887.03;;;15.79;36.67
26823;BME280;14852;51.910;8.878;2023-04-26T05:27:01;99885.06;;;16.18;36.47
26823;BME280;14852;51.910;8.878;2023-04-26T05:29:51;99890.41;;;16.64;35.69
26823;BME280;14852;51.910;8.878;2023-04-26T05:32:32;99881.56;;;16.30;36.33
26823;BME280;14852;51.910;8.878;2023-04-26T05:35:11;99888.78;;;15.30;38.20
26823;BME280;14852;51.910;8.878;2023-04-26T05:37:37;99896.94;;;14.49;40.06
26823;BME280;14852;51.910;8.878;2023-04-26T05:40:06;99902.69;;;14.67;40.02
26823;BME280;14852;51.910;8.878;2023-04-26T05:42:32;99887.28;;;15.51;38.40
26823;BME280;14852;51.910;8.878;2023-04-26T05:44:58;99884.75;;;15.99;37.57
26823;BME280;14852;51.910;8.878;2023-04-26T05:47:24;99891.84;;;16.09;37.36
26823;BME280;14852;51.910;8.878;2023-04-26T05:49:51;99893.44;;;16.93;35.85
26823;BME280;14852;51.910;8.878;2023-04-26T05:52:17;99889.94;;;17.93;34.50
26823;BME280;14852;51.910;8.878;2023-04-26T05:54:43;99898.22;;;18.52;33.60
26823;BME280;14852;51.910;8.878;2023-04-26T05:57:09;99894.22;;;19.20;32.96
26823;BME280;14852;51.910;8.878;2023-04-26T05:59:35;99889.88;;;19.70;32.51
26823;BME280;14852;51.910;8.878;2023-04-26T06:02:01;99891.75;;;20.18;31.88
26823;BME280;14852;51.910;8.878;2023-04-26T06:04:29;99882.28;;;20.73;31.04
26823;BME280;14852;51.910;8.878;2023-04-26T06:07:09;99892.88;;;20.64;31.04
26823;BME280;14852;51.910;8.878;2023-04-26T06:09:34;99903.81;;;20.78;31.00
26823;BME280;14852;51.910;8.878;2023-04-26T06:12:00;99889.19;;;21.40;30.59
26823;BME280;14852;51.910;8.878;2023-04-26T06:14:26;99893.75;;;21.75;30.35
26823;BME280;14852;51.910;8.878;2023-04-26T06:16:52;99890.78;;;22.06;29.65
26823;BME280;14852;51.910;8.878;2023-04-26T06:19:18;99897.59;;;22.61;29.40
26823;BME280;14852;51.910;8.878;2023-04-26T06:21:44;99894.34;;;22.93;28.83
26823;BME280;14852;51.910;8.878;2023-04-26T06:24:10;99885.88;;;23.16;28.65
26823;BME280;14852;51.910;8.878;2023-04-26T06:26:36;99895.38;;;23.52;28.92
26823;BME280;14852;51.910;8.878;2023-04-26T06:29:02;99893.59;;;23.77;28.10
26823;BME280;14852;51.910;8.878;2023-04-26T06:31:28;99891.19;;;24.00;28.45
26823;BME280;14852;51.910;8.878;2023-04-26T06:33:56;99894.41;;;24.60;27.41
26823;BME280;14852;51.910;8.878;2023-04-26T06:36:22;99902.22;;;24.94;27.02
26823;BME280;14852;51.910;8.878;2023-04-26T06:38:49;99901.50;;;25.16;26.86
26823;BME280;14852;51.910;8.878;2023-04-26T06:41:15;99898.84;;;25.24;26.50
26823;BME280;14852;51.910;8.878;2023-04-26T06:43:41;99897.41;;;25.61;26.13
26823;BME280;14852;51.910;8.878;2023-04-26T06:46:18;99906.81;;;26.03;25.83
26823;BME280;14852;51.910;8.878;2023-04-26T06:48:53;99905.00;;;26.49;25.21
26823;BME280;14852;51.910;8.878;2023-04-26T06:51:19;99909.97;;;26.06;26.20
26823;BME280;14852;51.910;8.878;2023-04-26T06:53:45;99913.88;;;25.87;26.33
26823;BME280;14852;51.910;8.878;2023-04-26T06:56:12;99921.25;;;24.16;28.21
26823;BME280;14852;51.910;8.878;2023-04-26T06:58:38;99923.31;;;23.46;29.11
26823;BME280;14852;51.910;8.878;2023-04-26T07:01:04;99920.13;;;23.69;28.92
26823;BME280;14852;51.910;8.878;2023-04-26T07:03:30;99919.16;;;24.44;28.04
26823;BME280;14852;51.910;8.878;2023-04-26T07:05:57;99920.81;;;24.70;27.09
26823;BME280;14852;51.910;8.878;2023-04-26T07:08:23;99916.41;;;25.34;26.58
26823;BME280;14852;51.910;8.878;2023-04-26T07:10:49;99912.41;;;26.08;25.77
26823;BME280;14852;51.910;8.878;2023-04-26T07:13:15;99916.38;;;25.89;25.51
26823;BME280;14852;51.910;8.878;2023-04-26T07:15:41;99921.50;;;24.56;27.22
26823;BME280;14852;51.910;8.878;2023-04-26T07:18:07;99924.44;;;24.28;27.50
26823;BME280;14852;51.910;8.878;2023-04-26T07:20:33;99920.63;;;23.72;28.42
26823;BME280;14852;51.910;8.878;2023-04-26T07:22:59;99921.63;;;23.79;28.65
26823;BME280;14852;51.910;8.878;2023-04-26T07:25:24;99924.25;;;23.63;28.44
26823;BME280;14852;51.910;8.878;2023-04-26T07:27:50;99928.38;;;23.32;28.23
26823;BME280;14852;51.910;8.878;2023-04-26T07:30:16;99939.84;;;23.06;28.93
26823;BME280;14852;51.910;8.878;2023-04-26T07:32:42;99933.19;;;23.62;28.15
26823;BME280;14852;51.910;8.878;2023-04-26T07:35:09;99919.81;;;24.87;26.67
26823;BME280;14852;51.910;8.878;2023-04-26T07:37:41;99917.63;;;26.01;25.44
26823;BME280;14852;51.910;8.878;2023-04-26T07:40:09;99916.16;;;26.52;24.37
26823;BME280;14852;51.910;8.878;2023-04-26T07:42:35;99922.19;;;26.46;24.28
26823;BME280;14852;51.910;8.878;2023-04-26T07:45:01;99911.56;;;26.61;24.39
26823;BME280;14852;51.910;8.878;2023-04-26T07:47:27;99913.81;;;26.72;23.95
26823;BME280;14852;51.910;8.878;2023-04-26T07:49:53;99907.47;;;27.11;23.54
26823;BME280;14852;51.910;8.878;2023-04-26T07:52:19;99908.84;;;27.51;23.28
26823;BME280;14852;51.910;8.878;2023-04-26T07:54:45;99911.22;;;27.75;23.16
26823;BME280;14852;51.910;8.878;2023-04-26T07:57:11;99908.53;;;28.26;22.31
26823;BME280;14852;51.910;8.878;2023-04-26T07:59:37;99899.88;;;28.45;22.53
26823;BME280;14852;51.910;8.878;2023-04-26T08:02:03;99906.06;;;28.09;22.83
26823;BME280;14852;51.910;8.878;2023-04-26T08:04:33;99898.81;;;27.38;23.07
26823;BME280;14852;51.910;8.878;2023-04-26T08:06:59;99913.69;;;25.50;24.98
26823;BME280;14852;51.910;8.878;2023-04-26T08:09:29;99921.88;;;24.02;26.48
26823;BME280;14852;51.910;8.878;2023-04-26T08:11:56;99919.13;;;24.28;26.03
26823;BME280;14852;51.910;8.878;2023-04-26T08:14:21;99919.00;;;24.78;25.47
26823;BME280;14852;51.910;8.878;2023-04-26T08:16:47;99916.66;;;24.75;25.03
26823;BME280;14852;51.910;8.878;2023-04-26T08:19:13;99916.63;;;25.24;24.68
26823;BME280;14852;51.910;8.878;2023-04-26T08:21:39;99920.22;;;26.17;23.93
26823;BME280;14852;51.910;8.878;2023-04-26T08:24:05;99912.25;;;26.78;23.00
26823;BME280;14852;51.910;8.878;2023-04-26T08:26:30;99912.78;;;25.74;23.61
26823;BME280;14852;51.910;8.878;2023-04-26T08:28:56;99917.59;;;24.17;25.02
26823;BME280;14852;51.910;8.878;2023-04-26T08:31:22;99934.25;;;22.74;27.55
26823;BME280;14852;51.910;8.878;2023-04-26T08:33:48;99913.19;;;23.42;26.25
26823;BME280;14852;51.910;8.878;2023-04-26T08:36:13;99921.31;;;23.74;26.00
26823;BME280;14852;51.910;8.878;2023-04-26T08:38:39;99913.06;;;23.18;26.27
26823;BME280;14852;51.910;8.878;2023-04-26T08:41:05;99927.13;;;22.92;26.83
26823;BME280;14852;51.910;8.878;2023-04-26T08:43:35;99934.66;;;22.26;27.52
26823;BME280;14852;51.910;8.878;2023-04-26T08:46:02;99930.44;;;21.04;28.90
26823;BME280;14852;51.910;8.878;2023-04-26T08:48:33;99930.94;;;20.51;28.92
26823;BME280;14852;51.910;8.878;2023-04-26T08:51:01;99930.28;;;19.90;29.62
26823;BME280;14852;51.910;8.878;2023-04-26T08:53:28;99935.81;;;19.47;30.69
26823;BME280;14852;51.910;8.878;2023-04-26T08:55:55;99931.34;;;19.17;30.27
26823;BME280;14852;51.910;8.878;2023-04-26T08:58:22;99932.94;;;18.99;31.19
26823;BME280;14852;51.910;8.878;2023-04-26T09:00:49;99931.84;;;18.80;30.94
26823;BME280;14852;51.910;8.878;2023-04-26T09:03:15;99936.00;;;18.83;30.75
26823;BME280;14852;51.910;8.878;2023-04-26T09:05:41;99939.94;;;18.89;30.77
26823;BME280;14852;51.910;8.878;2023-04-26T09:08:15;99943.84;;;18.94;30.87
26823;BME280;14852;51.910;8.878;2023-04-26T09:10:44;99936.59;;;18.55;30.71
26823;BME280;14852;51.910;8.878;2023-04-26T09:13:10;99941.91;;;18.00;31.42
26823;BME280;14852;51.910;8.878;2023-04-26T09:15:36;99938.38;;;17.79;31.90
26823;BME280;14852;51.910;8.878;2023-04-26T09:18:20;99933.19;;;18.00;31.93
26823;BME280;14852;51.910;8.878;2023-04-26T09:21:05;99925.00;;;18.25;32.12
26823;BME280;14852;51.910;8.878;2023-04-26T09:23:31;99921.78;;;18.54;30.91
26823;BME280;14852;51.910;8.878;2023-04-26T09:26:20;99934.66;;;18.89;31.19
26823;BME280;14852;51.910;8.878;2023-04-26T09:28:46;99929.97;;;18.92;30.27
26823;BME280;14852;51.910;8.878;2023-04-26T09:31:36;99929.47;;;18.45;31.14
26823;BME280;14852;51.910;8.878;2023-04-26T09:34:03;99929.88;;;17.98;31.87
26823;BME280;14852;51.910;8.878;2023-04-26T09:36:29;99932.28;;;17.67;31.86
26823;BME280;14852;51.910;8.878;2023-04-26T09:38:56;99932.88;;;17.60;31.83
26823;BME280;14852;51.910;8.878;2023-04-26T09:41:22;99923.53;;;17.56;32.02
26823;BME280;14852;51.910;8.878;2023-04-26T09:43:51;99928.34;;;17.40;31.51
26823;BME280;14852;51.910;8.878;2023-04-26T09:46:23;99936.31;;;17.16;31.85
26823;BME280;14852;51.910;8.878;2023-04-26T09:49:00;99948.75;;;16.79;31.61
26823;BME280;14852;51.910;8.878;2023-04-26T09:51:27;99943.75;;;16.28;32.29
26823;BME280;14852;51.910;8.878;2023-04-26T09:53:53;99943.81;;;15.91;32.88
26823;BME280;14852;51.910;8.878;2023-04-26T09:56:19;99944.72;;;15.67;33.38
26823;BME280;14852;51.910;8.878;2023-04-26T10:01:12;99955.06;;;15.43;33.21
26823;BME280;14852;51.910;8.878;2023-04-26T10:03:40;99951.94;;;15.63;33.29
26823;BME280;14852;51.910;8.878;2023-04-26T10:06:07;99944.09;;;16.00;33.11
26823;BME280;14852;51.910;8.878;2023-04-26T10:08:33;99942.22;;;16.25;32.84
26823;BME280;14852;51.910;8.878;2023-04-26T10:11:00;99939.25;;;16.30;32.06
26823;BME280;14852;51.910;8.878;2023-04-26T10:13:30;99939.59;;;16.25;32.43
26823;BME280;14852;51.910;8.878;2023-04-26T10:15:58;99937.22;;;16.10;32.84
26823;BME280;14852;51.910;8.878;2023-04-26T10:18:24;99937.81;;;16.02;33.04
26823;BME280;14852;51.910;8.878;2023-04-26T10:20:52;99932.25;;;15.94;32.77
26823;BME280;14852;51.910;8.878;2023-04-26T10:23:22;99942.72;;;15.94;32.99
26823;BME280;14852;51.910;8.878;2023-04-26T10:25:51;99937.22;;;15.86;32.57
26823;BME280;14852;51.910;8.878;2023-04-26T10:28:17;99939.03;;;15.73;32.79
26823;BME280;14852;51.910;8.878;2023-04-26T10:31:03;99934.31;;;15.52;33.01
26823;BME280;14852;51.910;8.878;2023-04-26T10:33:30;99937.91;;;15.26;33.13
26823;BME280;14852;51.910;8.878;2023-04-26T10:36:08;99934.56;;;14.99;33.74
26823;BME280;14852;51.910;8.878;2023-04-26T10:38:37;99941.13;;;14.79;34.03
26823;BME280;14852;51.910;8.878;2023-04-26T10:41:30;99946.44;;;14.65;34.22
26823;BME280;14852;51.910;8.878;2023-04-26T10:43:58;99945.44;;;14.40;34.40
26823;BME280;14852;51.910;8.878;2023-04-26T10:46:36;99945.44;;;14.26;34.88
26823;BME280;14852;51.910;8.878;2023-04-26T10:49:17;99948.66;;;14.17;34.55
26823;BME280;14852;51.910;8.878;2023-04-26T10:52:12;99942.44;;;14.05;35.05
26823;BME280;14852;51.910;8.878;2023-04-26T10:54:58;99946.69;;;13.94;34.70
26823;BME280;14852;51.910;8.878;2023-04-26T10:57:49;99944.34;;;13.89;35.09
26823;BME280;14852;51.910;8.878;2023-04-26T11:00:28;99941.44;;;13.94;35.32
26823;BME280;14852;51.910;8.878;2023-04-26T11:03:02;99937.44;;;13.88;35.00
26823;BME280;14852;51.910;8.878;2023-04-26T11:05:40;99942.66;;;13.88;34.79
26823;BME280;14852;51.910;8.878;2023-04-26T11:10:38;99940.97;;;13.87;34.86
26823;BME280;14852;51.910;8.878;2023-04-26T11:13:05;99942.00;;;13.85;34.98
26823;BME280;14852;51.910;8.878;2023-04-26T11:15:32;99938.38;;;13.87;34.94
26823;BME280;14852;51.910;8.878;2023-04-26T11:17:58;99942.38;;;13.93;34.67
26823;BME280;14852;51.910;8.878;2023-04-26T11:20:31;99943.97;;;13.95;34.53
26823;BME280;14852;51.910;8.878;2023-04-26T11:22:57;99943.56;;;14.01;34.37
26823;BME280;14852;51.910;8.878;2023-04-26T11:25:27;99942.50;;;14.18;33.94
26823;BME280;14852;51.910;8.878;2023-04-26T11:27:59;99944.94;;;14.34;34.06
26823;BME280;14852;51.910;8.878;2023-04-26T11:30:31;99949.59;;;14.43;34.01
26823;BME280;14852;51.910;8.878;2023-04-26T11:32:59;99952.47;;;14.53;34.14
26823;BME280;14852;51.910;8.878;2023-04-26T11:35:25;99955.63;;;14.58;34.15
26823;BME280;14852;51.910;8.878;2023-04-26T11:37:52;99953.94;;;14.57;34.13
26823;BME280;14852;51.910;8.878;2023-04-26T11:40:18;99958.97;;;14.60;33.99
26823;BME280;14852;51.910;8.878;2023-04-26T11:42:44;99949.16;;;14.63;34.02
26823;BME280;14852;51.910;8.878;2023-04-26T11:45:10;99949.88;;;14.53;34.05
26823;BME280;14852;51.910;8.878;2023-04-26T11:47:37;99944.94;;;14.48;34.09
26823;BME280;14852;51.910;8.878;2023-04-26T11:50:03;99948.06;;;14.40;34.48
26823;BME280;14852;51.910;8.878;2023-04-26T11:52:29;99959.22;;;14.42;34.33
26823;BME280;14852;51.910;8.878;2023-04-26T11:55:04;99948.47;;;14.47;34.17
26823;BME280;14852;51.910;8.878;2023-04-26T11:57:31;99952.13;;;14.44;34.57
26823;BME280;14852;51.910;8.878;2023-04-26T12:00:12;99950.06;;;14.49;34.61
26823;BME280;14852;51.910;8.878;2023-04-26T12:02:43;99957.59;;;14.54;34.42
26823;BME280;14852;51.910;8.878;2023-04-26T12:05:09;99959.16;;;14.57;34.68
26823;BME280;14852;51.910;8.878;2023-04-26T12:07:36;99959.28;;;14.68;34.14
26823;BME280;14852;51.910;8.878;2023-04-26T12:10:20;99959.53;;;14.90;33.97
26823;BME280;14852;51.910;8.878;2023-04-26T12:12:48;99952.47;;;15.05;33.88
26823;BME280;14852;51.910;8.878;2023-04-26T12:15:16;99948.47;;;15.25;33.96
26823;BME280;14852;51.910;8.878;2023-04-26T12:18:07;99955.91;;;15.31;33.49
26823;BME280;14852;51.910;8.878;2023-04-26T12:20:40;99949.09;;;15.28;33.80
26823;BME280;14852;51.910;8.878;2023-04-26T12:23:14;99951.81;;;15.39;33.79
26823;BME280;14852;51.910;8.878;2023-04-26T12:25:51;99950.34;;;15.35;33.63
26823;BME280;14852;51.910;8.878;2023-04-26T12:28:17;99955.19;;;15.16;33.92
26823;BME280;14852;51.910;8.878;2023-04-26T12:30:43;99962.41;;;15.00;34.13
26823;BME280;14852;51.910;8.878;2023-04-26T12:33:08;99958.28;;;14.83;34.41
26823;BME280;14852;51.910;8.878;2023-04-26T12:35:34;99950.22;;;14.73;34.29
26823;BME280;14852;51.910;8.878;2023-04-26T12:38:00;99962.75;;;14.68;34.79
26823;BME280;14852;51.910;8.878;2023-04-26T12:40:27;99958.56;;;14.66;34.65
26823;BME280;14852;51.910;8.878;2023-04-26T12:42:53;99958.56;;;14.53;34.43
26823;BME280;14852;51.910;8.878;2023-04-26T12:45:23;99955.91;;;14.40;34.63
26823;BME280;14852;51.910;8.878;2023-04-26T12:47:50;99954.66;;;14.32;35.09
26823;BME280;14852;51.910;8.878;2023-04-26T12:50:16;99949.66;;;14.29;34.98
26823;BME280;14852;51.910;8.878;2023-04-26T12:52:43;99952.53;;;14.24;35.20
26823;BME280;14852;51.910;8.878;2023-04-26T12:55:11;99954.97;;;14.27;35.30
26823;BME280;14852;51.910;8.878;2023-04-26T12:57:39;99956.44;;;14.31;35.02
26823;BME280;14852;51.910;8.878;2023-04-26T13:00:09;99949.88;;;14.38;34.89
26823;BME280;14852;51.910;8.878;2023-04-26T13:02:36;99949.31;;;14.47;35.15
26823;BME280;14852;51.910;8.878;2023-04-26T13:05:02;99959.38;;;14.54;34.56
26823;BME280;14852;51.910;8.878;2023-04-26T13:07:33;99955.22;;;14.64;34.37
26823;BME280;14852;51.910;8.878;2023-04-26T13:10:00;99945.59;;;14.64;34.88
26823;BME280;14852;51.910;8.878;2023-04-26T13:12:27;99946.53;;;14.63;34.68
26823;BME280;14852;51.910;8.878;2023-04-26T13:14:53;99944.31;;;14.57;34.63